Time;durP1;ratioP1;P1;durP2;ratioP2;P2;SDS_P1;SDS_P2;PMS_P1;PMS_P2;Temp;Humidity;BMP_temperature;BMP_pressure;BME280_temperature;BME280_humidity;BME280_pressure;Samples;Min_cycle;Max_cycle;Signal;HPM_P1;HPM_P2
2023/02/13 00:00:08;;;;;;;19.80;11.75;;;9.90;99.90;;;;;;4211036;28;20082;-66
2023/02/13 00:02:08;;;;;;;19.60;11.43;;;9.90;99.90;;;;;;4209746;28;20028;-67
2023/02/13 00:04:09;;;;;;;17.55;10.52;;;9.90;99.90;;;;;;4211233;28;20039;-66
2023/02/13 00:06:10;;;;;;;17.35;11.43;;;9.80;99.90;;;;;;4210669;28;20430;-66
2023/02/13 00:08:11;;;;;;;18.65;11.50;;;9.80;99.90;;;;;;4211550;28;20044;-66
2023/02/13 00:10:11;;;;;;;16.77;10.60;;;9.90;99.90;;;;;;4210006;28;20040;-67
2023/02/13 00:12:12;;;;;;;17.02;10.98;;;9.80;99.90;;;;;;4210524;28;20020;-66
2023/02/13 00:14:13;;;;;;;17.73;11.13;;;9.80;99.90;;;;;;4209917;28;20490;-66
2023/02/13 00:16:13;;;;;;;21.45;11.82;;;9.80;99.90;;;;;;4210845;28;20035;-66
2023/02/13 00:18:14;;;;;;;14.55;10.07;;;9.80;99.90;;;;;;4211495;28;20032;-65
2023/02/13 00:20:14;;;;;;;14.75;9.38;;;9.80;99.90;;;;;;4208363;28;20550;-66
2023/02/13 00:22:15;;;;;;;16.50;9.60;;;9.90;99.90;;;;;;4210588;28;20024;-66
2023/02/13 00:24:16;;;;;;;12.95;9.30;;;9.80;99.90;;;;;;4211232;28;20040;-66
2023/02/13 00:26:17;;;;;;;14.50;8.93;;;9.80;99.90;;;;;;4210216;28;20036;-66
2023/02/13 00:28:17;;;;;;;17.77;9.02;;;9.80;99.90;;;;;;4211212;28;20120;-65
2023/02/13 00:30:18;;;;;;;13.15;8.75;;;9.80;99.90;;;;;;4209678;28;20040;-66
2023/02/13 00:32:19;;;;;;;15.27;9.18;;;9.80;99.90;;;;;;4210996;28;20036;-66
2023/02/13 00:34:20;;;;;;;16.45;9.50;;;9.80;99.90;;;;;;4211332;28;20033;-66
2023/02/13 00:36:22;;;;;;;13.20;8.35;;;9.80;99.90;;;;;;4205888;28;20119;-66
2023/02/13 00:38:23;;;;;;;;;;;9.80;99.90;;;;;;4207801;28;20111;-66
2023/02/13 00:40:24;;;;;;;13.20;7.85;;;9.90;99.90;;;;;;4209590;28;20247;-66
2023/02/13 00:42:25;;;;;;;10.82;7.10;;;9.80;99.90;;;;;;4208240;28;20079;-66
2023/02/13 00:44:26;;;;;;;12.45;7.75;;;9.80;99.90;;;;;;4209291;28;20040;-66
2023/02/13 00:46:26;;;;;;;10.68;6.68;;;9.80;99.90;;;;;;4209875;28;20567;-65
2023/02/13 00:48:28;;;;;;;10.85;7.07;;;9.80;99.90;;;;;;4211547;28;20032;-66
2023/02/13 00:50:29;;;;;;;10.75;6.72;;;9.70;99.90;;;;;;4209220;28;20604;-66
2023/02/13 00:52:30;;;;;;;9.98;6.88;;;9.80;99.90;;;;;;4209865;28;20048;-66
2023/02/13 00:54:30;;;;;;;11.35;7.40;;;9.70;99.90;;;;;;4210970;28;20028;-66
2023/02/13 00:56:31;;;;;;;11.82;7.85;;;9.70;99.90;;;;;;4211968;28;20169;-66
2023/02/13 00:58:32;;;;;;;13.00;7.68;;;9.70;99.90;;;;;;4211012;28;20051;-66
2023/02/13 01:00:32;;;;;;;12.68;7.70;;;9.70;99.90;;;;;;4209401;28;20032;-66
2023/02/13 01:02:35;;;;;;;12.98;7.63;;;9.70;99.90;;;;;;4210321;28;20054;-66
2023/02/13 01:04:35;;;;;;;13.18;8.40;;;9.70;99.90;;;;;;4210903;28;20389;-66
2023/02/13 01:06:36;;;;;;;11.82;7.50;;;9.60;99.90;;;;;;4209992;28;20050;-66
2023/02/13 01:08:40;;;;;;;13.63;8.25;;;9.70;99.90;;;;;;4210389;28;20028;-66
2023/02/13 01:10:41;;;;;;;14.15;8.48;;;9.70;99.90;;;;;;4205909;28;20059;-66
2023/02/13 01:12:42;;;;;;;15.30;9.60;;;9.60;99.90;;;;;;4210066;28;20036;-66
2023/02/13 01:14:42;;;;;;;14.00;8.27;;;9.60;99.90;;;;;;4210501;28;20446;-66
2023/02/13 01:16:43;;;;;;;14.45;9.02;;;9.70;99.90;;;;;;4208860;28;20099;-66
2023/02/13 01:18:44;;;;;;;14.18;8.38;;;9.70;99.90;;;;;;4210573;28;20525;-66
2023/02/13 01:21:01;;;;;;;12.15;8.13;;;9.60;99.90;;;;;;4209283;28;20111;-66
2023/02/13 01:23:01;;;;;;;11.75;7.93;;;9.70;99.90;;;;;;4209525;28;20054;-66
2023/02/13 01:25:02;;;;;;;14.32;8.82;;;9.70;99.90;;;;;;4210362;28;20119;-67
2023/02/13 01:27:03;;;;;;;15.05;9.38;;;9.70;99.90;;;;;;4209645;28;20241;-66
2023/02/13 01:29:04;;;;;;;15.40;9.10;;;9.70;99.90;;;;;;4210483;28;20514;-66
2023/02/13 01:31:04;;;;;;;15.52;8.77;;;9.60;99.90;;;;;;4206959;28;20086;-66
2023/02/13 01:33:05;;;;;;;15.70;9.23;;;9.60;99.90;;;;;;4209115;28;20487;-66
2023/02/13 01:35:06;;;;;;;14.77;8.50;;;9.60;99.90;;;;;;4210009;28;20402;-66
2023/02/13 01:37:07;;;;;;;15.30;8.95;;;9.60;99.90;;;;;;4208326;28;20421;-66
2023/02/13 01:39:11;;;;;;;15.35;9.05;;;9.60;99.90;;;;;;4208610;28;20028;-66
2023/02/13 01:41:14;;;;;;;13.77;8.63;;;9.60;99.90;;;;;;4209171;28;20063;-66
2023/02/13 01:43:14;;;;;;;13.23;8.05;;;9.60;99.90;;;;;;4210092;28;20024;-67
2023/02/13 01:45:25;;;;;;;12.90;7.80;;;9.60;99.90;;;;;;4209911;28;20050;-66
2023/02/13 01:47:48;;;;;;;12.80;8.10;;;9.70;99.90;;;;;;4210849;28;20043;-66
2023/02/13 01:49:54;;;;;;;13.57;8.25;;;9.70;99.90;;;;;;4207569;28;20068;-66
2023/02/13 01:51:55;;;;;;;16.70;9.75;;;9.70;99.90;;;;;;4208879;28;20043;-67
2023/02/13 01:54:07;;;;;;;16.70;9.63;;;9.60;99.90;;;;;;4210531;28;20036;-66
2023/02/13 01:56:13;;;;;;;16.42;10.60;;;9.60;99.90;;;;;;4210437;28;20032;-66
2023/02/13 01:58:19;;;;;;;16.38;10.00;;;9.50;99.90;;;;;;4210581;28;20063;-66
2023/02/13 02:00:20;;;;;;;15.43;9.35;;;9.50;99.90;;;;;;4209246;28;20040;-66
2023/02/13 02:02:22;;;;;;;16.95;10.38;;;9.50;99.90;;;;;;4209923;28;20040;-66
2023/02/13 02:04:34;;;;;;;20.08;10.50;;;9.50;99.90;;;;;;4210223;28;20039;-66
2023/02/13 02:06:40;;;;;;;16.58;10.80;;;9.50;99.90;;;;;;4209136;27;20036;-66
2023/02/13 02:08:41;;;;;;;16.45;9.68;;;9.50;99.90;;;;;;4208058;28;20032;-66
2023/02/13 02:10:42;;;;;;;17.52;10.48;;;9.50;99.90;;;;;;4207075;28;20103;-66
2023/02/13 02:12:54;;;;;;;18.05;10.23;;;9.50;99.90;;;;;;4209710;28;20031;-66
2023/02/13 02:14:57;;;;;;;14.23;9.75;;;9.50;99.90;;;;;;4210165;28;20043;-67
2023/02/13 02:16:57;;;;;;;17.73;10.10;;;9.50;99.90;;;;;;4205722;28;20031;-66
2023/02/13 02:19:03;;;;;;;19.05;11.10;;;9.50;99.90;;;;;;4210713;28;20146;-66
2023/02/13 02:21:09;;;;;;;16.58;10.55;;;9.50;99.90;;;;;;4208373;28;20103;-66
2023/02/13 02:23:13;;;;;;;18.50;10.60;;;9.60;99.90;;;;;;4209205;28;20461;-66
2023/02/13 02:25:41;;;;;;;18.13;10.93;;;9.50;99.90;;;;;;4210697;27;20499;-66
2023/02/13 02:27:56;;;;;;;19.90;10.77;;;9.50;99.90;;;;;;4208158;28;20119;-66
2023/02/13 02:30:31;;;;;;;16.30;10.02;;;9.50;99.90;;;;;;4209469;28;20040;-66
2023/02/13 02:32:41;;;;;;;17.15;9.82;;;9.60;99.90;;;;;;4206921;28;20031;-66
2023/02/13 02:34:53;;;;;;;18.15;10.07;;;9.60;99.90;;;;;;4209960;28;20546;-66
2023/02/13 02:37:35;;;;;;;15.45;9.85;;;9.60;99.90;;;;;;4209113;28;20039;-66
2023/02/13 02:40:13;;;;;;;19.77;11.13;;;9.60;99.90;;;;;;4205072;28;20082;-66
2023/02/13 02:42:31;;;;;;;19.30;11.50;;;9.60;99.90;;;;;;4195341;28;20509;-66
2023/02/13 02:44:34;;;;;;;16.52;10.90;;;9.60;99.90;;;;;;4204043;28;20033;-66
2023/02/13 02:49:57;;;;;;;18.15;10.90;;;9.60;99.90;;;;;;4202842;28;20024;-66
2023/02/13 02:51:49;;;;;;;19.27;11.35;;;9.60;99.90;;;;;;4198473;28;20025;-66
2023/02/13 02:55:05;;;;;;;15.93;9.60;;;9.50;99.90;;;;;;4210291;28;20024;-66
2023/02/13 02:56:31;;;;;;;17.95;10.18;;;9.50;99.90;;;;;;4209616;28;20107;-66
2023/02/13 03:06:23;;;;;;;16.90;10.93;;;9.40;99.90;;;;;;4206821;28;20028;-66
2023/02/13 03:13:29;;;;;;;19.65;10.95;;;9.40;99.90;;;;;;4208821;28;20033;-66
2023/02/13 03:15:30;;;;;;;;;;;9.40;99.90;;;;;;4207640;28;20036;-66
2023/02/13 03:22:59;;;;;;;16.38;9.52;;;9.40;99.90;;;;;;4202900;28;20154;-66
2023/02/13 03:25:34;;;;;;;16.20;9.85;;;9.40;99.90;;;;;;4195565;28;20034;-66
2023/02/13 03:30:35;;;;;;;16.63;10.00;;;9.40;99.90;;;;;;4194923;28;20040;-66
2023/02/13 03:33:12;;;;;;;19.63;11.32;;;9.40;99.90;;;;;;4198878;28;20034;-66
2023/02/13 03:38:09;;;;;;;17.35;10.50;;;9.30;99.90;;;;;;4208364;28;20043;-66
2023/02/13 03:40:17;;;;;;;18.60;10.98;;;9.20;99.90;;;;;;4189903;28;20156;-66
2023/02/13 03:42:34;;;;;;;17.77;11.30;;;9.20;99.90;;;;;;4189422;28;20047;-66
2023/02/13 03:47:26;;;;;;;18.83;10.57;;;9.20;99.90;;;;;;4196813;28;20537;-67
2023/02/13 03:51:54;;;;;;;17.88;10.55;;;9.20;99.90;;;;;;4214106;28;20081;-66
2023/02/13 03:53:58;;;;;;;15.32;9.52;;;9.30;99.90;;;;;;4211243;28;20036;-66
2023/02/13 04:00:59;;;;;;;19.42;11.52;;;9.20;99.90;;;;;;4210005;28;20051;-66
2023/02/13 04:03:28;;;;;;;16.92;10.32;;;9.20;99.90;;;;;;4216927;28;20039;-66
2023/02/13 04:05:32;;;;;;;19.45;10.30;;;9.20;99.90;;;;;;4191228;28;20032;-66
2023/02/13 04:07:34;;;;;;;15.50;9.60;;;9.20;99.90;;;;;;4217577;27;20051;-66
2023/02/13 04:09:39;;;;;;;17.17;10.10;;;9.20;99.90;;;;;;4206149;28;20036;-66
2023/02/13 04:12:04;;;;;;;16.90;11.02;;;9.20;99.90;;;;;;4214754;28;20278;-66
2023/02/13 04:14:39;;;;;;;18.20;10.38;;;9.20;99.90;;;;;;4191190;28;20071;-66
2023/02/13 04:16:48;;;;;;;16.08;9.65;;;9.10;99.90;;;;;;4204492;28;20028;-65
2023/02/13 04:18:51;;;;;;;16.50;10.23;;;9.10;99.90;;;;;;4211282;28;20081;-66
2023/02/13 04:20:52;;;;;;;17.30;10.60;;;9.10;99.90;;;;;;4210291;28;20040;-66
2023/02/13 04:22:53;;;;;;;16.52;10.52;;;9.10;99.90;;;;;;4207887;28;20034;-66
2023/02/13 04:24:53;;;;;;;17.17;10.40;;;9.00;99.90;;;;;;4191255;28;20059;-66
2023/02/13 04:26:55;;;;;;;15.88;9.55;;;9.10;99.90;;;;;;4201333;28;20043;-66
2023/02/13 04:28:55;;;;;;;16.77;9.88;;;9.10;99.90;;;;;;4200408;28;21263;-66
2023/02/13 04:30:57;;;;;;;17.33;10.85;;;9.10;99.90;;;;;;4201757;28;20029;-66
2023/02/13 04:32:57;;;;;;;16.33;10.13;;;9.10;99.90;;;;;;4200894;28;20157;-67
2023/02/13 04:34:58;;;;;;;17.65;10.40;;;9.10;99.90;;;;;;4202464;28;20426;-66
2023/02/13 04:36:58;;;;;;;16.48;10.25;;;9.10;99.90;;;;;;4207101;28;20048;-66
2023/02/13 04:38:59;;;;;;;14.55;9.63;;;9.10;99.90;;;;;;4207494;28;20036;-66
2023/02/13 04:40:59;;;;;;;16.52;9.70;;;9.10;99.90;;;;;;4215313;28;20119;-66
2023/02/13 04:43:00;;;;;;;14.25;9.10;;;9.10;99.90;;;;;;4212560;28;20031;-66
2023/02/13 04:45:01;;;;;;;15.90;10.32;;;9.10;99.90;;;;;;4218650;28;20027;-66
2023/02/13 04:47:01;;;;;;;18.40;10.85;;;9.10;99.90;;;;;;4217932;28;20494;-66
2023/02/13 04:49:02;;;;;;;16.83;10.68;;;9.00;99.90;;;;;;4217817;28;20112;-66
2023/02/13 04:51:03;;;;;;;14.95;10.15;;;9.00;99.90;;;;;;4208396;28;20032;-66
2023/02/13 04:53:03;;;;;;;17.75;10.57;;;8.90;99.90;;;;;;4212463;28;20430;-66
2023/02/13 04:55:04;;;;;;;16.88;10.90;;;8.90;99.90;;;;;;4212944;28;20514;-67
2023/02/13 04:57:05;;;;;;;16.17;9.75;;;8.90;99.90;;;;;;4212303;28;20070;-66
2023/02/13 04:59:06;;;;;;;16.23;10.10;;;8.90;99.90;;;;;;4205793;28;20027;-66
2023/02/13 05:01:14;;;;;;;17.55;10.07;;;8.90;99.90;;;;;;4206936;28;20027;-66
2023/02/13 05:03:15;;;;;;;15.85;9.95;;;8.90;99.90;;;;;;4204768;28;20043;-65
2023/02/13 05:05:16;;;;;;;14.55;9.30;;;8.90;99.90;;;;;;4208379;28;20049;-66
2023/02/13 05:07:16;;;;;;;17.83;10.50;;;8.90;99.90;;;;;;4206100;28;20092;-66
2023/02/13 05:09:17;;;;;;;17.13;10.63;;;8.90;99.90;;;;;;4194101;28;20395;-66
2023/02/13 05:11:17;;;;;;;17.85;10.30;;;8.90;99.90;;;;;;4203118;28;20036;-65
2023/02/13 05:13:20;;;;;;;14.88;9.82;;;8.90;99.90;;;;;;4218338;28;20044;-66
2023/02/13 05:15:22;;;;;;;17.63;10.48;;;8.80;99.90;;;;;;4205178;28;20116;-66
2023/02/13 05:17:23;;;;;;;17.27;10.70;;;8.80;99.90;;;;;;4181370;28;20029;-66
2023/02/13 05:19:23;;;;;;;16.60;10.27;;;8.80;99.90;;;;;;4205106;28;20803;-66
2023/02/13 05:23:43;;;;;;;14.90;9.85;;;8.80;99.90;;;;;;4205133;28;20032;-66
2023/02/13 05:25:44;;;;;;;17.77;10.82;;;8.70;99.90;;;;;;4206606;28;20047;-66
2023/02/13 05:27:45;;;;;;;18.20;10.82;;;8.70;99.90;;;;;;4202730;28;20055;-66
2023/02/13 05:29:45;;;;;;;15.45;10.07;;;8.70;99.90;;;;;;4202957;28;20036;-66
2023/02/13 05:31:48;;;;;;;17.27;11.00;;;8.70;99.90;;;;;;4206920;28;20039;-66
2023/02/13 05:33:49;;;;;;;19.63;11.48;;;8.60;99.90;;;;;;4205616;28;20055;-66
2023/02/13 05:35:49;;;;;;;17.02;9.77;;;8.60;99.90;;;;;;4211668;28;20024;-66
2023/02/13 05:37:50;;;;;;;16.80;11.13;;;8.60;99.90;;;;;;4186574;28;20548;-66
2023/02/13 05:39:50;;;;;;;19.25;11.35;;;8.60;99.90;;;;;;4209268;28;20138;-65
2023/02/13 05:41:51;;;;;;;16.33;10.32;;;8.60;99.90;;;;;;4207954;28;20032;-66
2023/02/13 05:43:51;;;;;;;15.90;10.57;;;8.60;99.90;;;;;;4211156;28;20445;-66
2023/02/13 05:46:07;;;;;;;17.35;11.25;;;8.60;99.90;;;;;;4211995;28;20120;-66
2023/02/13 05:48:07;;;;;;;17.50;11.27;;;8.50;99.90;;;;;;4206865;28;20439;-66
2023/02/13 05:50:08;;;;;;;17.30;10.95;;;8.50;99.90;;;;;;4202256;28;20040;-66
2023/02/13 05:52:09;;;;;;;16.25;10.45;;;8.50;99.90;;;;;;4216051;28;20085;-66
2023/02/13 05:54:10;;;;;;;13.93;9.68;;;8.50;99.90;;;;;;4216168;28;20036;-66
2023/02/13 05:56:10;;;;;;;16.95;11.27;;;8.50;99.90;;;;;;4209558;28;20441;-66
2023/02/13 05:58:11;;;;;;;15.93;10.18;;;8.50;99.90;;;;;;4211128;28;20036;-66
2023/02/13 06:00:12;;;;;;;16.42;10.45;;;8.40;99.90;;;;;;4208826;28;20093;-67
2023/02/13 06:02:12;;;;;;;17.42;10.00;;;8.40;99.90;;;;;;4213969;28;20028;-66
2023/02/13 06:04:13;;;;;;;18.35;10.75;;;8.40;99.90;;;;;;4204213;28;20039;-66
2023/02/13 06:06:14;;;;;;;16.13;9.70;;;8.40;99.90;;;;;;4211152;28;20039;-66
2023/02/13 06:08:14;;;;;;;20.40;11.18;;;8.40;99.90;;;;;;4210103;28;20474;-66
2023/02/13 06:10:15;;;;;;;16.23;10.20;;;8.30;99.90;;;;;;4204054;28;20040;-66
2023/02/13 06:12:16;;;;;;;15.15;9.60;;;8.30;99.90;;;;;;4204728;28;20043;-66
2023/02/13 06:14:16;;;;;;;15.63;10.15;;;8.40;99.90;;;;;;4206052;28;20141;-65
2023/02/13 06:16:17;;;;;;;17.27;10.77;;;8.30;99.90;;;;;;4204327;28;20044;-66
2023/02/13 06:18:17;;;;;;;14.75;9.82;;;8.30;99.90;;;;;;4206048;28;20533;-66
2023/02/13 06:20:18;;;;;;;17.13;10.57;;;8.30;99.90;;;;;;4203903;28;20058;-66
2023/02/13 06:22:19;;;;;;;13.77;9.35;;;8.30;99.90;;;;;;4201227;28;20042;-66
2023/02/13 06:24:19;;;;;;;18.00;10.80;;;8.30;99.90;;;;;;4201641;28;20067;-66
2023/02/13 06:26:20;;;;;;;16.73;10.75;;;8.30;99.90;;;;;;4203121;28;20044;-65
2023/02/13 06:28:20;;;;;;;13.40;9.20;;;8.30;99.90;;;;;;4204134;28;20100;-66
2023/02/13 06:30:21;;;;;;;15.30;9.50;;;8.30;99.90;;;;;;4204715;28;20090;-66
2023/02/13 06:32:22;;;;;;;17.75;11.13;;;8.30;99.90;;;;;;4215943;28;20028;-66
2023/02/13 06:34:22;;;;;;;16.05;10.25;;;8.30;99.90;;;;;;4206425;28;20127;-66
2023/02/13 06:36:23;;;;;;;16.10;9.95;;;8.30;99.90;;;;;;4191423;28;20032;-66
2023/02/13 06:38:24;;;;;;;17.58;11.10;;;8.30;99.90;;;;;;4193478;28;20082;-66
2023/02/13 06:40:24;;;;;;;15.75;10.88;;;8.30;99.90;;;;;;4208764;28;20032;-66
2023/02/13 06:42:25;;;;;;;16.83;9.93;;;8.30;99.90;;;;;;4207168;28;20035;-66
2023/02/13 06:44:25;;;;;;;22.35;11.07;;;8.20;99.90;;;;;;4200916;28;20039;-66
2023/02/13 06:46:26;;;;;;;15.52;10.00;;;8.30;99.90;;;;;;4206203;28;20482;-66
2023/02/13 06:48:26;;;;;;;16.42;10.60;;;8.30;99.90;;;;;;4203227;28;20394;-66
2023/02/13 06:50:27;;;;;;;16.58;9.95;;;8.30;99.90;;;;;;4206725;28;20172;-67
2023/02/13 06:52:29;;;;;;;16.13;10.07;;;8.30;99.90;;;;;;4196231;28;20056;-67
2023/02/13 06:54:29;;;;;;;14.70;9.75;;;8.30;99.90;;;;;;4199840;28;20071;-66
2023/02/13 06:56:31;;;;;;;13.90;9.15;;;8.30;99.90;;;;;;4198224;28;20487;-67
2023/02/13 06:58:33;;;;;;;16.20;9.82;;;8.30;99.90;;;;;;4189532;28;20075;-67
2023/02/13 07:00:34;;;;;;;15.23;10.05;;;8.30;99.90;;;;;;4204360;28;20063;-67
2023/02/13 07:02:36;;;;;;;18.75;9.88;;;8.30;99.90;;;;;;4204330;28;20047;-67
2023/02/13 07:04:37;;;;;;;16.58;9.95;;;8.30;99.90;;;;;;4204788;28;20062;-67
2023/02/13 07:06:37;;;;;;;15.63;10.13;;;8.20;99.90;;;;;;4206162;28;20380;-67
2023/02/13 07:08:38;;;;;;;15.48;10.30;;;8.30;99.90;;;;;;4201562;28;20024;-67
2023/02/13 07:10:42;;;;;;;15.23;9.80;;;8.20;99.90;;;;;;4202797;28;20031;-67
2023/02/13 07:12:42;;;;;;;16.15;10.50;;;8.20;99.90;;;;;;4203763;28;20486;-67
2023/02/13 07:14:43;;;;;;;18.23;11.00;;;8.20;99.90;;;;;;4203905;28;20034;-68
2023/02/13 07:16:43;;;;;;;15.35;10.05;;;8.20;99.90;;;;;;4202267;28;20040;-67
2023/02/13 07:18:44;;;;;;;16.20;10.43;;;8.20;99.90;;;;;;4203564;28;20170;-67
2023/02/13 07:20:44;;;;;;;16.10;10.65;;;8.20;99.90;;;;;;4203809;28;20094;-67
2023/02/13 07:22:45;;;;;;;19.08;11.18;;;8.20;99.90;;;;;;4201037;28;20032;-67
2023/02/13 07:24:45;;;;;;;16.45;10.10;;;8.30;99.90;;;;;;4201157;28;20029;-67
2023/02/13 07:26:46;;;;;;;14.73;9.93;;;8.30;99.90;;;;;;4200908;28;20048;-67
2023/02/13 07:28:47;;;;;;;16.38;9.95;;;8.30;99.90;;;;;;4210122;28;20052;-67
2023/02/13 07:30:47;;;;;;;15.07;9.88;;;8.30;99.90;;;;;;4209882;28;20048;-67
2023/02/13 07:32:48;;;;;;;16.30;10.40;;;8.30;99.90;;;;;;4209905;28;20038;-67
2023/02/13 07:34:49;;;;;;;15.85;10.68;;;8.30;99.90;;;;;;4217736;28;20035;-67
2023/02/13 07:36:49;;;;;;;15.45;10.02;;;8.30;99.90;;;;;;4215353;28;20085;-67
2023/02/13 07:38:50;;;;;;;18.58;11.30;;;8.30;99.90;;;;;;4214814;28;20507;-67
2023/02/13 07:40:50;;;;;;;17.63;11.43;;;8.20;99.90;;;;;;4209253;28;20089;-67
2023/02/13 07:42:51;;;;;;;17.27;10.88;;;8.20;99.90;;;;;;4208066;28;20036;-67
2023/02/13 07:44:51;;;;;;;16.65;10.70;;;8.20;99.90;;;;;;4216457;28;20486;-67
2023/02/13 07:46:52;;;;;;;20.92;12.85;;;8.20;99.90;;;;;;4204469;28;20035;-66
2023/02/13 07:48:53;;;;;;;18.95;11.10;;;8.20;99.90;;;;;;4217082;28;20043;-67
2023/02/13 07:50:58;;;;;;;18.60;11.65;;;8.20;99.90;;;;;;4218274;28;20039;-67
2023/02/13 07:53:00;;;;;;;16.75;10.65;;;8.30;99.90;;;;;;4216331;28;20390;-66
2023/02/13 07:55:01;;;;;;;15.88;10.55;;;8.30;99.90;;;;;;4209825;28;20036;-67
2023/02/13 07:57:03;;;;;;;17.17;11.25;;;8.40;99.90;;;;;;4205060;28;20044;-67
2023/02/13 07:59:03;;;;;;;17.90;11.13;;;8.60;99.90;;;;;;4211286;28;20110;-67
2023/02/13 08:01:09;;;;;;;16.10;10.63;;;8.80;99.90;;;;;;4200953;28;20515;-67
2023/02/13 08:03:09;;;;;;;15.60;10.07;;;9.00;99.90;;;;;;4210370;28;20120;-67
2023/02/13 08:05:10;;;;;;;16.15;9.95;;;9.30;99.90;;;;;;4210797;28;20075;-67
2023/02/13 08:07:12;;;;;;;16.83;11.05;;;9.60;99.90;;;;;;4207730;28;20055;-67
2023/02/13 08:11:54;;;;;;;13.77;9.85;;;10.10;99.90;;;;;;4199845;28;20021;-67
2023/02/13 08:13:55;;;;;;;14.45;9.95;;;10.40;99.90;;;;;;4208099;28;20510;-67
2023/02/13 08:15:55;;;;;;;15.15;10.35;;;10.70;99.90;;;;;;4208115;28;20028;-67
2023/02/13 08:17:56;;;;;;;15.27;10.63;;;11.00;99.90;;;;;;4207258;28;20036;-67
2023/02/13 08:19:57;;;;;;;14.95;9.95;;;11.30;99.90;;;;;;4211747;28;20146;-67
2023/02/13 08:21:57;;;;;;;14.27;9.80;;;11.50;99.90;;;;;;4211767;28;20482;-67
2023/02/13 08:23:58;;;;;;;14.88;10.02;;;11.80;99.90;;;;;;4213266;28;20531;-67
2023/02/13 08:26:01;;;;;;;16.60;10.32;;;12.10;99.90;;;;;;4203469;28;20044;-68
2023/02/13 08:28:02;;;;;;;13.98;9.77;;;12.30;99.90;;;;;;4211584;28;20498;-68
2023/02/13 08:30:04;;;;;;;14.10;9.48;;;12.50;99.90;;;;;;4213671;28;20063;-67
2023/02/13 08:32:04;;;;;;;15.00;9.80;;;12.80;99.90;;;;;;4215286;28;20032;-67
2023/02/13 08:34:05;;;;;;;14.68;9.93;;;12.90;99.90;;;;;;4217534;28;20035;-67
2023/02/13 08:36:06;;;;;;;11.57;8.75;;;13.10;99.90;;;;;;4219374;28;20031;-67
2023/02/13 08:38:08;;;;;;;13.82;9.10;;;13.30;99.90;;;;;;4209286;28;20036;-68
2023/02/13 08:40:09;;;;;;;12.55;9.38;;;13.50;99.90;;;;;;4209420;28;20040;-69
2023/02/13 08:42:10;;;;;;;14.50;9.50;;;13.60;99.90;;;;;;4210378;28;20134;-67
2023/02/13 08:44:10;;;;;;;12.95;8.70;;;13.70;99.90;;;;;;4215767;28;20027;-68
2023/02/13 08:46:11;;;;;;;12.48;8.65;;;13.90;99.90;;;;;;4203136;28;20089;-67
2023/02/13 08:48:11;;;;;;;11.57;8.30;;;14.00;99.90;;;;;;4215321;28;20032;-67
2023/02/13 08:50:12;;;;;;;14.75;9.55;;;14.20;99.90;;;;;;4214426;28;20036;-68
2023/02/13 08:52:12;;;;;;;13.02;8.57;;;13.90;99.90;;;;;;4215778;28;20511;-67
2023/02/13 08:54:13;;;;;;;11.95;8.77;;;14.20;99.90;;;;;;4215797;28;20036;-68
2023/02/13 08:56:14;;;;;;;13.38;8.73;;;14.20;99.90;;;;;;4215155;28;20020;-67
2023/02/13 08:58:14;;;;;;;11.55;8.30;;;14.40;99.90;;;;;;4213148;28;20048;-67
2023/02/13 09:00:15;;;;;;;10.30;7.65;;;14.60;99.90;;;;;;4209373;28;20020;-68
2023/02/13 09:02:16;;;;;;;12.10;8.18;;;14.80;99.90;;;;;;4217226;28;20036;-68
2023/02/13 09:04:19;;;;;;;11.27;7.70;;;15.00;99.90;;;;;;4216692;28;20080;-67
2023/02/13 09:06:20;;;;;;;10.50;7.97;;;15.30;99.90;;;;;;4214003;28;20046;-68
2023/02/13 09:08:21;;;;;;;12.05;8.52;;;15.60;99.90;;;;;;4212771;28;20081;-67
2023/02/13 09:10:21;;;;;;;13.93;8.30;;;15.80;99.90;;;;;;4211813;28;20490;-67
2023/02/13 09:12:22;;;;;;;11.70;8.02;;;16.00;99.90;;;;;;4209259;28;20414;-68
2023/02/13 09:14:26;;;;;;;13.02;8.38;;;16.10;99.90;;;;;;4195948;28;21355;-68
2023/02/13 09:16:26;;;;;;;9.73;7.38;;;15.90;99.90;;;;;;4203649;28;20028;-67
2023/02/13 09:18:27;;;;;;;12.27;8.50;;;15.90;99.90;;;;;;4213574;28;20425;-67
2023/02/13 09:20:28;;;;;;;10.43;7.68;;;16.00;99.90;;;;;;4208335;28;20033;-67
2023/02/13 09:22:29;;;;;;;10.95;7.03;;;16.00;99.90;;;;;;4203438;28;20501;-67
2023/02/13 09:24:30;;;;;;;10.07;6.97;;;16.00;99.90;;;;;;4189565;28;20102;-67
2023/02/13 09:26:30;;;;;;;10.68;7.47;;;15.90;99.90;;;;;;4209936;28;20064;-68
2023/02/13 09:28:32;;;;;;;8.68;6.70;;;15.90;99.90;;;;;;4207057;28;20033;-67
2023/02/13 09:30:33;;;;;;;13.93;8.55;;;15.80;99.90;;;;;;4204951;28;20129;-67
2023/02/13 09:32:36;;;;;;;11.32;8.30;;;15.70;99.90;;;;;;4206533;28;20361;-68
2023/02/13 09:34:37;;;;;;;12.70;7.78;;;15.60;99.90;;;;;;4212981;28;20100;-68
2023/02/13 09:36:37;;;;;;;10.75;7.30;;;15.60;99.90;;;;;;4203808;28;20064;-68
2023/02/13 09:38:38;;;;;;;11.77;8.50;;;15.60;99.90;;;;;;4213500;28;20024;-68
2023/02/13 09:40:41;;;;;;;11.95;8.02;;;15.50;99.90;;;;;;4220375;28;20466;-67
2023/02/13 09:42:43;;;;;;;10.20;7.30;;;15.40;99.90;;;;;;4210526;28;20060;-67
2023/02/13 09:44:45;;;;;;;10.45;7.28;;;15.30;99.90;;;;;;4218147;28;20028;-67
2023/02/13 09:46:45;;;;;;;11.27;7.55;;;15.30;99.90;;;;;;4211116;28;20028;-68
2023/02/13 09:48:52;;;;;;;11.40;8.00;;;15.30;99.90;;;;;;4216576;28;20024;-67
2023/02/13 09:50:53;;;;;;;10.82;7.97;;;15.10;99.90;;;;;;4210548;28;20486;-67
2023/02/13 09:52:55;;;;;;;11.55;7.95;;;15.00;99.90;;;;;;4212431;28;20024;-67
2023/02/13 09:54:55;;;;;;;12.88;8.50;;;14.90;99.90;;;;;;4222332;28;20027;-67
2023/02/13 09:57:01;;;;;;;11.90;8.27;;;14.80;99.90;;;;;;4211421;28;20431;-68
2023/02/13 09:59:14;;;;;;;13.27;9.00;;;14.80;99.90;;;;;;4206878;28;20510;-68
2023/02/13 10:01:20;;;;;;;;;;;14.70;99.90;;;;;;4208933;28;20111;-68
2023/02/13 10:03:45;;;;;;;13.15;8.98;;;14.60;99.90;;;;;;4208279;28;20390;-67
2023/02/13 10:05:59;;;;;;;12.73;8.68;;;14.70;99.90;;;;;;4209580;28;20486;-67
2023/02/13 10:08:24;;;;;;;14.98;9.50;;;14.50;99.90;;;;;;4203376;28;20546;-67
2023/02/13 10:10:56;;;;;;;14.18;9.35;;;14.50;99.90;;;;;;4202572;28;20068;-67
2023/02/13 10:13:18;;;;;;;16.30;9.82;;;14.40;99.90;;;;;;4199631;28;20082;-67
2023/02/13 10:15:41;;;;;;;14.20;9.40;;;14.20;99.90;;;;;;4181485;28;20037;-67
2023/02/13 10:17:45;;;;;;;12.60;8.45;;;14.30;99.90;;;;;;4199779;28;20029;-67
2023/02/13 10:19:54;;;;;;;13.43;9.32;;;14.20;99.90;;;;;;4201306;28;20053;-67
2023/02/13 10:21:59;;;;;;;15.63;9.65;;;14.10;99.90;;;;;;4201329;28;20035;-67
2023/02/13 10:24:04;;;;;;;10.93;7.55;;;14.10;99.90;;;;;;4209373;28;20115;-68
2023/02/13 10:26:17;;;;;;;14.07;9.45;;;14.10;99.90;;;;;;4205732;28;20349;-68
2023/02/13 10:28:37;;;;;;;14.40;9.18;;;14.00;99.90;;;;;;4213290;28;20063;-68
2023/02/13 10:30:54;;;;;;;15.02;9.43;;;14.00;99.90;;;;;;4203598;28;20043;-67
2023/02/13 10:33:19;;;;;;;14.68;9.35;;;13.80;99.90;;;;;;4214970;28;20052;-67
2023/02/13 10:35:31;;;;;;;14.60;9.48;;;13.80;99.90;;;;;;4211688;28;20445;-67
2023/02/13 10:37:31;;;;;;;14.63;9.10;;;13.80;99.90;;;;;;4215054;28;20084;-67
2023/02/13 10:39:32;;;;;;;12.27;8.63;;;13.80;99.90;;;;;;4211810;27;20484;-66
2023/02/13 10:41:52;;;;;;;12.77;8.68;;;13.90;99.90;;;;;;4211435;28;20036;-68
2023/02/13 10:44:00;;;;;;;13.75;9.43;;;13.90;99.90;;;;;;4209856;28;20049;-67
2023/02/13 10:46:10;;;;;;;13.70;8.95;;;13.90;99.90;;;;;;4203044;28;20543;-67
2023/02/13 10:48:29;;;;;;;12.80;9.55;;;13.90;99.90;;;;;;4210398;28;20028;-67
2023/02/13 10:50:42;;;;;;;14.82;9.52;;;13.80;99.90;;;;;;4208256;28;20040;-67
2023/02/13 10:53:00;;;;;;;13.32;8.57;;;13.80;99.90;;;;;;4206476;28;20590;-67
2023/02/13 10:55:20;;;;;;;13.38;8.32;;;13.80;99.90;;;;;;4213343;28;20385;-67
2023/02/13 10:57:38;;;;;;;15.00;9.38;;;13.80;99.90;;;;;;4212657;28;20059;-67
2023/02/13 10:59:45;;;;;;;12.80;8.60;;;13.70;99.90;;;;;;4208901;28;20115;-67
2023/02/13 11:02:21;;;;;;;13.30;8.05;;;13.70;99.90;;;;;;4208585;28;20052;-67
2023/02/13 11:04:22;;;;;;;12.63;9.00;;;13.80;99.90;;;;;;4207218;28;20093;-67
2023/02/13 11:06:22;;;;;;;13.63;9.05;;;13.80;99.90;;;;;;4213058;28;20035;-67
2023/02/13 11:08:33;;;;;;;12.70;8.68;;;13.80;99.90;;;;;;4205885;28;20039;-67
2023/02/13 11:10:34;;;;;;;13.80;9.90;;;13.80;99.90;;;;;;4206526;28;20043;-67
2023/02/13 11:12:35;;;;;;;15.13;9.50;;;13.80;99.90;;;;;;4205951;28;20504;-67
2023/02/13 11:14:48;;;;;;;15.50;10.35;;;13.80;99.90;;;;;;4206885;28;20032;-67
2023/02/13 11:17:01;;;;;;;13.38;9.57;;;13.50;99.90;;;;;;4207698;28;20033;-67
2023/02/13 11:19:01;;;;;;;13.60;9.63;;;13.60;99.90;;;;;;4209021;28;20058;-67
2023/02/13 11:21:06;;;;;;;14.85;10.18;;;13.60;99.90;;;;;;4205664;28;20064;-68
2023/02/13 11:23:28;;;;;;;17.42;10.52;;;13.60;99.90;;;;;;4206110;28;20036;-67